Time;durP1;ratioP1;P1;durP2;ratioP2;P2;SDS_P1;SDS_P2;PMS_P1;PMS_P2;Temp;Humidity;BMP_temperature;BMP_pressure;BME280_temperature;BME280_humidity;BME280_pressure;Samples;Min_cycle;Max_cycle;Signal;HPM_P1;HPM_P2
2022/09/08 00:00:51;;;;;;;10.90;7.13;;;16.90;99.90;16.90;100115.00;;;;4916644;28;88554;-65
2022/09/08 00:03:20;;;;;;;9.88;6.55;;;16.80;99.90;16.90;100113.00;;;;4916926;28;88429;-65
2022/09/08 00:06:05;;;;;;;7.70;6.07;;;16.80;99.90;16.80;100107.00;;;;4915995;28;100968;-65
2022/09/08 00:08:30;;;;;;;8.73;5.43;;;16.80;99.90;16.80;100106.00;;;;4913022;28;87790;-66
2022/09/08 00:10:59;;;;;;;12.13;7.47;;;16.70;99.90;16.80;100095.00;;;;4914496;28;106342;-65
2022/09/08 00:13:27;;;;;;;8.88;7.18;;;16.70;99.90;16.80;100094.00;;;;4911390;28;88998;-65
2022/09/08 00:15:54;;;;;;;8.80;6.43;;;16.70;99.90;16.80;100100.00;;;;4914962;28;117491;-65
2022/09/08 00:18:20;;;;;;;8.68;7.22;;;16.70;99.90;16.80;100090.00;;;;4916596;28;87869;-65
2022/09/08 00:20:46;;;;;;;9.65;6.03;;;16.70;99.90;16.80;100095.00;;;;4914885;28;108009;-65
2022/09/08 00:23:12;;;;;;;8.88;6.10;;;16.60;99.90;16.70;100090.00;;;;4915548;28;88210;-65
2022/09/08 00:25:37;;;;;;;7.15;6.45;;;16.60;99.90;16.70;100087.00;;;;4915654;28;87869;-66
2022/09/08 00:28:03;;;;;;;8.45;6.65;;;16.60;99.90;16.70;100087.00;;;;4913794;28;107692;-65
2022/09/08 00:30:30;;;;;;;9.85;6.78;;;16.60;99.90;16.70;100092.00;;;;4914687;28;110275;-65
2022/09/08 00:32:56;;;;;;;8.10;6.50;;;16.60;99.90;16.70;100090.00;;;;4915362;28;88878;-65
2022/09/08 00:35:22;;;;;;;10.18;6.47;;;16.60;99.90;16.70;100085.00;;;;4914399;28;110257;-66
2022/09/08 00:37:52;;;;;;;7.18;5.40;;;16.60;99.90;16.60;100080.00;;;;4915620;28;87805;-65
2022/09/08 00:40:18;;;;;;;7.30;6.60;;;16.60;99.90;16.60;100077.00;;;;4915667;28;87687;-66
2022/09/08 00:42:44;;;;;;;8.55;6.50;;;16.50;99.90;16.60;100062.00;;;;4908247;28;101374;-66
2022/09/08 00:45:12;;;;;;;9.45;6.43;;;16.50;99.90;16.60;100070.00;;;;4914409;28;116009;-65
2022/09/08 00:47:50;;;;;;;8.07;5.85;;;16.50;99.90;16.50;100060.00;;;;4916114;28;87834;-65
2022/09/08 00:50:21;;;;;;;8.10;4.97;;;16.50;99.90;16.50;100066.00;;;;4911060;28;102324;-65
2022/09/08 00:53:00;;;;;;;10.30;7.07;;;16.40;99.90;16.50;100064.00;;;;4915897;28;88561;-66
2022/09/08 00:55:37;;;;;;;7.90;6.00;;;16.40;99.90;16.50;100062.00;;;;4914682;28;87854;-64
2022/09/08 00:58:04;;;;;;;7.72;5.88;;;16.40;99.90;16.50;100065.00;;;;4914571;28;88033;-64
2022/09/08 01:00:31;;;;;;;9.27;6.68;;;16.40;99.90;16.50;100074.00;;;;4915012;28;88814;-63
2022/09/08 01:02:57;;;;;;;10.98;6.47;;;16.40;99.90;16.50;100068.00;;;;4914961;28;88886;-64
2022/09/08 01:05:30;;;;;;;7.85;5.80;;;16.40;99.90;16.50;100060.00;;;;4914741;28;88737;-66
2022/09/08 01:14:43;;;;;;;6.70;5.40;;;16.30;99.90;16.30;100061.00;;;;4907683;28;87960;-65
2022/09/08 01:17:22;;;;;;;6.78;5.90;;;16.30;99.90;16.40;100063.00;;;;4914843;28;87984;-65
2022/09/08 01:19:49;;;;;;;6.53;4.93;;;16.30;99.90;16.40;100063.00;;;;4912994;28;87049;-65
2022/09/08 01:22:34;;;;;;;8.00;5.70;;;16.30;99.90;16.30;100062.00;;;;4913066;28;89898;-66
2022/09/08 01:25:30;;;;;;;8.05;5.47;;;16.30;99.90;16.30;100050.00;;;;4911836;28;89536;-65
2022/09/08 01:28:25;;;;;;;8.80;6.05;;;16.30;99.90;16.30;100053.00;;;;4912867;28;89047;-66
2022/09/08 01:30:52;;;;;;;9.00;6.15;;;16.30;99.90;16.30;100046.00;;;;4916206;28;95508;-65
2022/09/08 01:33:19;;;;;;;5.97;5.32;;;16.20;99.90;16.30;100040.00;;;;4916632;28;100265;-65
2022/09/08 01:35:45;;;;;;;7.72;5.57;;;16.20;99.90;16.30;100043.00;;;;4911734;28;91611;-66
2022/09/08 01:38:11;;;;;;;6.78;5.82;;;16.20;99.90;16.30;100033.00;;;;4918555;28;88690;-65
2022/09/08 01:40:40;;;;;;;7.63;5.93;;;16.20;99.90;16.30;100030.00;;;;4917921;28;102649;-66
2022/09/08 01:43:07;;;;;;;7.25;5.65;;;16.20;99.90;16.30;100041.00;;;;4918833;28;87523;-66
2022/09/08 01:45:34;;;;;;;8.32;6.45;;;16.20;99.90;16.30;100032.00;;;;4918332;28;88282;-65
2022/09/08 01:48:00;;;;;;;12.30;6.13;;;16.20;99.90;16.30;100029.00;;;;4917410;28;88131;-65
2022/09/08 01:50:26;;;;;;;6.90;6.30;;;16.20;99.90;16.30;100026.00;;;;4916738;28;101386;-65
2022/09/08 01:52:51;;;;;;;9.93;7.28;;;16.20;99.90;16.20;100019.00;;;;4918215;28;89363;-65
2022/09/08 01:55:17;;;;;;;9.93;6.75;;;16.10;99.90;16.20;100020.00;;;;4916692;28;116271;-65
2022/09/08 01:57:43;;;;;;;7.00;6.30;;;16.20;99.90;16.20;100016.00;;;;4915837;28;89002;-65
2022/09/08 02:00:10;;;;;;;6.22;5.70;;;16.10;99.90;16.20;100014.00;;;;4916517;28;111807;-65
2022/09/08 02:02:36;;;;;;;7.30;6.60;;;16.10;99.90;16.20;100019.00;;;;4918768;28;88559;-66
2022/09/08 02:05:02;;;;;;;9.48;6.60;;;16.10;99.90;16.10;100015.00;;;;4917064;28;116560;-66
2022/09/08 02:07:27;;;;;;;7.90;5.88;;;16.10;99.90;16.10;100020.00;;;;4918195;28;88943;-66
2022/09/08 02:09:53;;;;;;;7.93;6.13;;;16.00;99.90;16.10;100017.00;;;;4916884;28;110558;-66
2022/09/08 02:12:19;;;;;;;7.18;6.00;;;16.00;99.90;16.10;100015.00;;;;4916817;28;109674;-66
2022/09/08 02:14:45;;;;;;;9.07;5.32;;;16.00;99.90;16.00;100015.00;;;;4916174;28;89970;-66
2022/09/08 02:17:11;;;;;;;8.30;5.60;;;16.00;99.90;16.00;100011.00;;;;4915897;28;117436;-65
2022/09/08 02:19:37;;;;;;;6.47;4.95;;;16.00;99.90;16.00;100004.00;;;;4918665;28;87802;-66
2022/09/08 02:22:03;;;;;;;7.80;6.63;;;15.90;99.90;16.00;100001.00;;;;4917370;28;88195;-66
2022/09/08 02:24:29;;;;;;;7.10;5.70;;;15.90;99.90;16.00;99996.00;;;;4918102;28;88901;-65
2022/09/08 02:26:55;;;;;;;7.15;5.38;;;15.90;99.90;16.00;100003.00;;;;4916877;28;88062;-65
2022/09/08 02:29:21;;;;;;;6.65;6.05;;;15.90;99.90;15.90;99994.00;;;;4918383;28;87973;-65
2022/09/08 02:31:47;;;;;;;10.70;6.53;;;15.90;99.90;15.90;99996.00;;;;4916640;28;88230;-66
2022/09/08 02:34:13;;;;;;;8.68;6.60;;;15.90;99.90;15.90;99994.00;;;;4917802;28;117259;-65
2022/09/08 02:36:39;;;;;;;8.23;5.82;;;15.80;99.90;15.90;99995.00;;;;4916958;28;87882;-66
2022/09/08 02:39:05;;;;;;;8.30;6.63;;;15.80;99.90;15.90;99982.00;;;;4917165;28;110637;-65
2022/09/08 02:41:30;;;;;;;8.50;6.03;;;15.80;99.90;15.90;99982.00;;;;4915642;28;109142;-66
2022/09/08 02:43:56;;;;;;;7.75;6.43;;;15.80;99.90;15.90;99982.00;;;;4917834;28;87999;-66
2022/09/08 02:46:22;;;;;;;6.82;5.82;;;15.80;99.90;15.90;99986.00;;;;4916845;28;87786;-65
2022/09/08 02:48:48;;;;;;;6.22;5.55;;;15.80;99.90;15.90;99981.00;;;;4917864;28;87694;-65
2022/09/08 02:51:17;;;;;;;6.82;5.50;;;15.80;99.90;15.90;99983.00;;;;4916011;28;107452;-65
2022/09/08 02:53:43;;;;;;;7.93;5.88;;;15.80;99.90;15.90;99981.00;;;;4917050;28;88801;-65
2022/09/08 02:56:09;;;;;;;10.82;6.95;;;15.80;99.90;15.80;99979.00;;;;4915258;28;118372;-65
2022/09/08 02:58:36;;;;;;;7.47;6.10;;;15.70;99.90;15.80;99981.00;;;;4917215;28;111082;-65
2022/09/08 03:01:05;;;;;;;9.15;6.53;;;15.80;99.90;15.80;99967.00;;;;4916521;28;87956;-65
2022/09/08 03:03:31;;;;;;;7.22;5.53;;;15.70;99.90;15.80;99967.00;;;;4914996;28;88414;-65
2022/09/08 03:05:56;;;;;;;7.65;5.63;;;15.80;99.90;15.80;99965.00;;;;4915156;28;117304;-65
2022/09/08 03:08:24;;;;;;;9.80;6.45;;;15.80;99.90;15.80;99963.00;;;;4916320;28;111387;-65
2022/09/08 03:10:50;;;;;;;5.65;5.03;;;15.80;99.90;15.80;99946.00;;;;4917340;28;87758;-65
2022/09/08 03:13:17;;;;;;;10.40;6.90;;;15.70;99.90;15.80;99951.00;;;;4916066;28;110705;-65
2022/09/08 03:15:43;;;;;;;5.47;4.82;;;15.70;99.90;15.80;99946.00;;;;4914020;28;94967;-65
2022/09/08 03:18:10;;;;;;;5.18;4.50;;;15.70;99.90;15.80;99943.00;;;;4917402;28;87967;-64
2022/09/08 03:20:38;;;;;;;7.82;5.10;;;15.70;99.90;15.80;99944.00;;;;4914463;28;89185;-65
2022/09/08 03:23:04;;;;;;;6.53;4.57;;;15.70;99.90;15.80;99946.00;;;;4916910;28;88938;-65
2022/09/08 03:25:30;;;;;;;7.78;5.38;;;15.70;99.90;15.80;99944.00;;;;4915670;28;114615;-64
2022/09/08 03:27:56;;;;;;;6.65;5.70;;;15.70;99.90;15.80;99946.00;;;;4917185;28;92465;-65
2022/09/08 03:30:22;;;;;;;6.72;6.03;;;15.80;99.90;15.80;99944.00;;;;4914679;28;109655;-65
2022/09/08 03:32:48;;;;;;;9.02;6.15;;;15.80;99.90;15.80;99940.00;;;;4915195;28;118415;-65
2022/09/08 03:35:16;;;;;;;7.30;6.03;;;15.70;99.90;15.80;99937.00;;;;4915803;28;99629;-65
2022/09/08 03:37:43;;;;;;;6.95;5.57;;;15.70;99.90;15.80;99931.00;;;;4914967;28;87596;-65
2022/09/08 03:40:13;;;;;;;7.63;6.57;;;15.70;99.90;15.80;99929.00;;;;4917450;28;87755;-65
2022/09/08 03:42:40;;;;;;;6.68;5.45;;;15.70;99.90;15.80;99929.00;;;;4915614;28;88162;-65
2022/09/08 03:45:11;;;;;;;6.35;5.50;;;15.70;99.90;15.80;99937.00;;;;4916195;28;108473;-65
2022/09/08 03:47:37;;;;;;;9.95;6.22;;;15.70;99.90;15.80;99937.00;;;;4917298;28;86944;-64
2022/09/08 03:50:04;;;;;;;6.60;5.65;;;15.80;99.90;15.80;99931.00;;;;4915580;28;87924;-65
2022/09/08 03:52:30;;;;;;;7.45;5.68;;;15.70;99.90;15.70;99931.00;;;;4915895;28;88805;-65
2022/09/08 03:54:57;;;;;;;7.95;6.65;;;15.70;99.90;15.70;99917.00;;;;4915055;28;116120;-65
2022/09/08 03:57:26;;;;;;;7.50;6.10;;;15.60;99.90;15.70;99907.00;;;;4915970;28;88132;-65
2022/09/08 03:59:56;;;;;;;7.25;6.38;;;15.60;99.90;15.70;99909.00;;;;4914127;28;87886;-65
2022/09/08 04:02:22;;;;;;;6.57;5.93;;;15.60;99.90;15.70;99911.00;;;;4916539;28;88854;-64
2022/09/08 04:04:54;;;;;;;7.80;6.28;;;15.60;99.90;15.70;99903.00;;;;4915976;28;106970;-65
2022/09/08 04:07:22;;;;;;;9.38;6.18;;;15.60;99.90;15.70;99908.00;;;;4915673;28;99860;-65
2022/09/08 04:09:48;;;;;;;7.80;5.05;;;15.60;99.90;15.70;99894.00;;;;4916562;28;87815;-65
2022/09/08 04:12:15;;;;;;;7.28;5.65;;;15.60;99.90;15.70;99897.00;;;;4914659;28;116862;-65
2022/09/08 04:14:41;;;;;;;9.88;6.25;;;15.60;99.90;15.70;99887.00;;;;4916526;28;88108;-65
2022/09/08 04:17:08;;;;;;;7.97;6.18;;;15.60;99.90;15.60;99894.00;;;;4916365;28;96515;-65
2022/09/08 04:19:34;;;;;;;7.63;6.80;;;15.60;99.90;15.70;99897.00;;;;4916106;28;89195;-66
2022/09/08 04:22:00;;;;;;;10.80;6.65;;;15.60;99.90;15.70;99898.00;;;;4914568;28;109264;-65
2022/09/08 04:24:26;;;;;;;7.10;6.35;;;15.60;99.90;15.70;99904.00;;;;4916005;28;89164;-65
2022/09/08 04:26:52;;;;;;;8.18;5.97;;;15.60;99.90;15.70;99900.00;;;;4914966;28;110084;-66
2022/09/08 04:29:18;;;;;;;6.00;5.40;;;15.60;99.90;15.70;99906.00;;;;4917016;28;87601;-65
2022/09/08 04:31:44;;;;;;;7.22;5.72;;;15.60;99.90;15.70;99912.00;;;;4913221;28;117873;-65
2022/09/08 04:34:13;;;;;;;5.53;5.03;;;15.60;99.90;15.70;99906.00;;;;4916606;28;88032;-65
2022/09/08 04:36:39;;;;;;;6.43;5.80;;;15.60;99.90;15.70;99912.00;;;;4915609;28;87110;-65
2022/09/08 04:39:05;;;;;;;7.18;6.50;;;15.60;99.90;15.70;99911.00;;;;4916788;28;101670;-65
2022/09/08 04:41:31;;;;;;;8.18;5.38;;;15.60;99.90;15.70;99915.00;;;;4913869;28;113622;-65
2022/09/08 04:44:02;;;;;;;7.50;4.38;;;15.60;99.90;15.70;99913.00;;;;4911466;28;88824;-65
2022/09/08 04:46:28;;;;;;;6.50;5.75;;;15.60;99.90;15.70;99908.00;;;;4912170;28;88063;-65
2022/09/08 04:48:55;;;;;;;7.65;5.05;;;15.60;99.90;15.70;99915.00;;;;4911678;28;108104;-65
2022/09/08 04:51:22;;;;;;;6.82;5.40;;;15.60;99.90;15.70;99904.00;;;;4911219;28;93682;-65
2022/09/08 04:53:52;;;;;;;9.45;6.47;;;15.60;99.90;15.70;99901.00;;;;4909538;28;88908;-65
2022/09/08 04:56:20;;;;;;;6.07;5.47;;;15.60;99.90;15.80;99907.00;;;;4911780;28;87977;-65
2022/09/08 04:58:46;;;;;;;5.97;5.07;;;15.70;99.90;15.80;99911.00;;;;4911625;28;87798;-65
2022/09/08 05:01:19;;;;;;;10.90;6.78;;;15.70;99.90;15.90;99908.00;;;;4911292;28;101178;-66
2022/09/08 05:03:46;;;;;;;6.55;5.70;;;15.80;99.90;16.00;99903.00;;;;4911308;28;108523;-65
2022/09/08 05:06:16;;;;;;;9.63;6.10;;;15.90;99.90;16.10;99899.00;;;;4912636;28;88311;-65
2022/09/08 05:08:44;;;;;;;7.18;6.40;;;15.90;99.90;16.20;99895.00;;;;4914943;28;88865;-65
2022/09/08 05:11:10;;;;;;;6.47;5.90;;;16.10;99.90;16.30;99901.00;;;;4913622;28;89034;-65
2022/09/08 05:13:36;;;;;;;8.45;6.82;;;16.20;99.90;16.40;99898.00;;;;4913947;28;116672;-65
2022/09/08 05:16:04;;;;;;;9.77;6.03;;;16.30;99.90;16.50;99892.00;;;;4914628;28;88020;-65
2022/09/08 05:18:30;;;;;;;7.43;5.70;;;16.40;99.90;16.60;99895.00;;;;4915634;28;87837;-65
2022/09/08 05:20:56;;;;;;;6.25;5.28;;;16.50;99.90;16.70;99886.00;;;;4914765;28;88615;-65
2022/09/08 05:23:22;;;;;;;9.07;5.97;;;16.60;99.90;16.80;99891.00;;;;4914902;28;92157;-65
2022/09/08 05:26:06;;;;;;;10.43;7.13;;;16.70;99.90;16.90;99905.00;;;;4914453;28;110465;-65
2022/09/08 05:28:37;;;;;;;7.78;6.63;;;16.80;99.90;17.00;99910.00;;;;4914736;28;87632;-65
2022/09/08 05:31:05;;;;;;;7.32;5.90;;;16.90;99.90;17.10;99899.00;;;;4913167;28;88342;-65
2022/09/08 05:33:32;;;;;;;9.13;6.30;;;17.00;99.90;17.20;99893.00;;;;4915015;28;94811;-65
2022/09/08 05:35:58;;;;;;;7.70;6.25;;;17.00;99.90;17.20;99893.00;;;;4914532;28;87644;-65
2022/09/08 05:38:24;;;;;;;7.15;6.05;;;17.10;99.90;17.30;99897.00;;;;4913440;28;91717;-65
2022/09/08 05:40:49;;;;;;;6.30;5.30;;;17.20;99.90;17.30;99894.00;;;;4915012;28;89126;-65
2022/09/08 05:43:16;;;;;;;9.20;6.40;;;17.20;99.90;17.40;99888.00;;;;4913946;28;117552;-65
2022/09/08 05:45:47;;;;;;;8.05;5.65;;;17.20;99.90;17.40;99887.00;;;;4915304;28;88036;-64
2022/09/08 05:48:13;;;;;;;8.85;5.78;;;17.30;99.90;17.40;99886.00;;;;4915088;28;87885;-65
2022/09/08 05:50:44;;;;;;;7.65;7.00;;;17.30;99.90;17.40;99890.00;;;;4914790;28;87854;-65
2022/09/08 05:53:12;;;;;;;5.40;4.90;;;17.10;99.90;17.40;99874.00;;;;4914431;28;87961;-64
2022/09/08 05:55:39;;;;;;;6.45;5.82;;;17.30;99.90;17.40;99875.00;;;;4913384;28;87832;-65
2022/09/08 05:58:05;;;;;;;7.43;5.95;;;17.30;99.90;17.40;99873.00;;;;4914541;28;89091;-64
2022/09/08 06:00:31;;;;;;;6.82;4.57;;;17.30;99.90;17.50;99877.00;;;;4915036;28;88034;-63
2022/09/08 06:02:56;;;;;;;6.50;5.25;;;17.30;99.90;17.50;99881.00;;;;4914608;28;88600;-63
2022/09/08 06:05:23;;;;;;;5.82;5.00;;;17.40;99.90;17.50;99882.00;;;;4914096;28;109971;-63
2022/09/08 06:07:48;;;;;;;6.93;6.10;;;17.40;99.90;17.50;99884.00;;;;4915010;28;87637;-64
2022/09/08 06:10:16;;;;;;;6.78;5.20;;;17.40;99.90;17.60;99894.00;;;;4914373;28;114942;-64
2022/09/08 06:12:41;;;;;;;5.22;4.28;;;17.40;99.90;17.60;99894.00;;;;4915533;28;88255;-63
2022/09/08 06:15:08;;;;;;;5.13;4.63;;;17.40;99.90;17.60;99890.00;;;;4918392;28;87088;-63
2022/09/08 06:17:35;;;;;;;6.20;5.22;;;17.50;99.90;17.60;99890.00;;;;4918386;28;88249;-63
2022/09/08 06:20:01;;;;;;;6.80;4.82;;;17.50;99.90;17.70;99884.00;;;;4915552;28;88437;-63
2022/09/08 06:22:29;;;;;;;7.13;4.72;;;17.50;99.90;17.70;99894.00;;;;4917057;28;88939;-63
2022/09/08 06:24:55;;;;;;;6.13;5.25;;;17.60;99.90;17.70;99889.00;;;;4919145;28;87703;-64
2022/09/08 06:27:44;;;;;;;6.53;5.38;;;17.60;99.90;17.80;99885.00;;;;4917166;28;109242;-63
2022/09/08 06:30:14;;;;;;;6.00;4.85;;;17.60;99.90;17.80;99887.00;;;;4913278;28;102158;-63
2022/09/08 06:32:49;;;;;;;5.68;4.57;;;17.50;99.90;17.90;99888.00;;;;4917588;28;88819;-63
2022/09/08 06:35:22;;;;;;;5.05;4.47;;;17.70;99.90;18.00;99896.00;;;;4917776;28;87767;-63
2022/09/08 06:37:53;;;;;;;5.70;4.88;;;17.80;99.90;18.00;99897.00;;;;4917049;28;88099;-63
2022/09/08 06:41:00;;;;;;;5.68;4.65;;;17.90;99.90;18.10;99909.00;;;;4917372;28;87924;-62
2022/09/08 06:43:46;;;;;;;4.78;3.92;;;17.90;99.90;18.10;99915.00;;;;4914033;28;95147;-63
2022/09/08 06:46:20;;;;;;;6.80;5.00;;;18.00;99.90;18.20;99900.00;;;;4917614;28;94453;-63
2022/09/08 06:48:46;;;;;;;7.07;4.80;;;18.00;99.90;18.20;99890.00;;;;4915201;28;88643;-63
2022/09/08 06:51:35;;;;;;;5.00;4.47;;;18.00;99.90;18.30;99900.00;;;;4917289;28;88128;-63
2022/09/08 06:54:10;;;;;;;5.65;4.47;;;18.10;99.90;18.40;99901.00;;;;4913088;28;88129;-63
2022/09/08 06:57:06;;;;;;;7.90;4.47;;;18.20;99.90;18.50;99909.00;;;;4907515;28;87823;-63
2022/09/08 06:59:50;;;;;;;5.95;4.70;;;18.30;99.90;18.60;99877.00;;;;4912019;28;88003;-63
2022/09/08 07:02:48;;;;;;;6.00;5.18;;;18.40;99.90;18.70;99891.00;;;;4915477;28;88616;-63
2022/09/08 07:05:57;;;;;;;5.85;4.40;;;18.50;99.90;18.80;99907.00;;;;4907792;28;88321;-63
2022/09/08 07:09:03;;;;;;;4.63;3.72;;;18.60;99.90;19.00;99909.00;;;;4914470;28;87141;-64
2022/09/08 07:12:08;;;;;;;7.78;5.75;;;18.70;99.90;19.20;99880.00;;;;4916342;28;88104;-63
2022/09/08 07:15:11;;;;;;;6.85;5.00;;;18.90;99.90;19.60;99894.00;;;;4911921;28;107217;-63
2022/09/08 07:17:52;;;;;;;8.80;4.72;;;19.30;99.90;19.90;99911.00;;;;4916623;28;99105;-63
2022/09/08 07:20:17;;;;;;;5.95;5.18;;;19.60;99.90;20.00;99908.00;;;;4914758;28;92685;-64
2022/09/08 07:22:55;;;;;;;6.00;5.40;;;19.80;99.90;20.20;99887.00;;;;4917182;28;87999;-63
2022/09/08 07:25:47;;;;;;;8.32;5.43;;;19.90;99.90;20.40;99898.00;;;;4915792;28;106581;-63
2022/09/08 07:28:20;;;;;;;7.53;5.00;;;20.10;99.90;20.50;99893.00;;;;4914439;28;88758;-63
2022/09/08 07:30:55;;;;;;;5.40;4.65;;;20.30;99.90;20.60;99880.00;;;;4916844;28;87849;-62
2022/09/08 07:33:28;;;;;;;6.10;4.80;;;20.40;99.90;20.60;99879.00;;;;4914863;28;87870;-62
2022/09/08 07:36:07;;;;;;;7.45;4.40;;;20.40;99.90;20.60;99888.00;;;;4898906;28;87229;-62
2022/09/08 07:38:47;;;;;;;9.02;5.32;;;20.50;99.90;20.70;99895.00;;;;4911071;28;88303;-62
2022/09/08 07:41:34;;;;;;;7.03;4.10;;;20.50;99.90;20.70;99890.00;;;;4908626;28;90328;-63
2022/09/08 07:44:02;;;;;;;5.50;4.72;;;20.50;99.90;20.70;99894.00;;;;4906371;28;89457;-63
2022/09/08 07:47:15;;;;;;;5.63;4.18;;;20.60;99.90;20.60;99902.00;;;;4914288;28;88789;-62
2022/09/08 07:50:10;;;;;;;9.85;4.38;;;20.50;99.90;20.60;99887.00;;;;4913669;28;108118;-63
2022/09/08 07:53:03;;;;;;;8.40;4.55;;;20.40;99.90;20.60;99891.00;;;;4910335;28;87899;-63
2022/09/08 07:55:40;;;;;;;5.75;3.92;;;20.40;99.90;20.60;99888.00;;;;4913539;28;87850;-63
2022/09/08 07:58:25;;;;;;;4.07;3.70;;;20.40;99.90;20.60;99896.00;;;;4910054;28;94457;-64
2022/09/08 08:01:06;;;;;;;8.68;5.25;;;20.40;99.90;20.60;99888.00;;;;4908818;28;88941;-65
2022/09/08 08:04:09;;;;;;;5.43;4.00;;;20.40;99.90;20.60;99892.00;;;;4915830;28;87208;-64
2022/09/08 08:06:46;;;;;;;5.18;4.25;;;20.40;99.90;20.60;99892.00;;;;4915578;28;87805;-64
2022/09/08 08:09:28;;;;;;;8.05;5.55;;;20.40;99.90;20.60;99897.00;;;;4912216;28;103991;-64
2022/09/08 08:12:22;;;;;;;7.43;6.25;;;20.40;99.90;20.50;99887.00;;;;4915271;28;88539;-64
2022/09/08 08:15:18;;;;;;;5.28;4.45;;;20.40;99.90;20.50;99900.00;;;;4913925;28;87983;-64
2022/09/08 08:17:55;;;;;;;6.05;4.45;;;20.30;99.90;20.50;99906.00;;;;4915382;28;87834;-65
2022/09/08 08:20:50;;;;;;;5.05;4.55;;;20.30;99.90;20.40;99913.00;;;;4915042;28;110192;-63
2022/09/08 08:23:45;;;;;;;7.55;4.65;;;20.30;99.90;20.40;99901.00;;;;4894845;28;88402;-63
2022/09/08 08:26:34;;;;;;;6.07;3.72;;;20.30;99.90;20.40;99913.00;;;;4915509;28;90320;-63
2022/09/08 08:29:44;;;;;;;6.60;4.57;;;20.30;99.90;20.40;99918.00;;;;4915299;28;87827;-65
2022/09/08 08:32:24;;;;;;;5.10;3.85;;;20.30;99.90;20.50;99928.00;;;;4913234;28;104895;-64
2022/09/08 08:35:34;;;;;;;4.20;3.80;;;20.30;99.90;20.40;99911.00;;;;4897981;28;87791;-63
2022/09/08 08:38:02;;;;;;;11.77;5.25;;;20.30;99.90;20.50;99912.00;;;;4899812;28;94609;-64
2022/09/08 08:40:58;;;;;;;7.13;4.82;;;20.30;99.90;20.50;99922.00;;;;4911705;28;89286;-63
2022/09/08 08:43:55;;;;;;;7.60;4.72;;;20.30;99.90;20.50;99924.00;;;;4915974;28;88472;-65
2022/09/08 08:46:46;;;;;;;6.97;4.00;;;20.30;99.90;20.40;99937.00;;;;4909810;28;88259;-63
2022/09/08 08:50:04;;;;;;;4.55;3.55;;;20.30;99.90;20.40;99943.00;;;;4912941;28;87746;-63
2022/09/08 08:53:20;;;;;;;9.10;3.88;;;20.30;99.90;20.40;99946.00;;;;4914677;28;87513;-64
2022/09/08 08:56:16;;;;;;;4.03;3.63;;;20.30;99.90;20.40;99949.00;;;;4913825;28;109305;-64
2022/09/08 08:59:00;;;;;;;5.63;4.90;;;20.30;99.90;20.40;99944.00;;;;4913242;28;109827;-64
2022/09/08 09:01:39;;;;;;;9.77;5.65;;;20.20;99.90;20.30;99943.00;;;;4910995;28;101198;-64
2022/09/08 09:04:43;;;;;;;11.65;5.78;;;20.20;99.90;20.30;99949.00;;;;4915303;28;87625;-64
2022/09/08 09:07:42;;;;;;;7.38;4.93;;;20.20;99.90;20.30;99950.00;;;;4910521;28;88774;-64
2022/09/08 09:10:31;;;;;;;5.43;4.72;;;20.30;99.90;20.20;99939.00;;;;4914093;28;99761;-64
2022/09/08 09:13:26;;;;;;;7.13;5.03;;;20.10;99.90;20.20;99939.00;;;;4914935;28;88134;-65
2022/09/08 09:16:20;;;;;;;7.82;5.82;;;20.10;99.90;20.20;99937.00;;;;4914813;28;87740;-64
2022/09/08 09:19:32;;;;;;;11.80;6.47;;;20.10;99.90;20.20;99938.00;;;;4905745;28;110251;-64
2022/09/08 09:22:20;;;;;;;7.50;4.93;;;20.10;99.90;20.30;99936.00;;;;4912769;28;87968;-64
2022/09/08 09:25:12;;;;;;;6.43;5.65;;;20.10;99.90;20.40;99927.00;;;;4911178;28;87745;-64
2022/09/08 09:27:45;;;;;;;6.15;5.30;;;20.20;99.90;20.40;99928.00;;;;4913572;28;87738;-64
2022/09/08 09:31:18;;;;;;;9.57;5.03;;;20.30;99.90;20.50;99930.00;;;;4916213;28;87133;-64
2022/09/08 09:34:32;;;;;;;8.48;5.70;;;20.30;99.90;20.60;99924.00;;;;4900462;28;88104;-66
2022/09/08 09:37:49;;;;;;;7.38;5.07;;;20.40;99.90;20.70;99928.00;;;;4915128;28;87845;-66
2022/09/08 09:40:50;;;;;;;6.10;5.25;;;20.50;99.90;20.80;99926.00;;;;4912266;28;89031;-65
2022/09/08 09:43:53;;;;;;;6.03;4.82;;;20.60;99.90;20.80;99923.00;;;;4912010;28;88001;-66
2022/09/08 09:47:28;;;;;;;6.57;5.03;;;20.60;99.90;20.90;99924.00;;;;4912761;28;87865;-65
2022/09/08 09:50:45;;;;;;;7.53;5.18;;;20.70;99.90;20.90;99917.00;;;;4903401;28;88185;-65
2022/09/08 09:53:44;;;;;;;7.53;5.00;;;20.80;99.90;21.00;99920.00;;;;4919224;28;88314;-65
2022/09/08 09:56:34;;;;;;;7.32;5.32;;;20.80;99.90;21.00;99919.00;;;;4909729;28;88089;-66
2022/09/08 09:59:24;;;;;;;5.53;4.15;;;20.80;99.90;21.00;99921.00;;;;4908619;28;88013;-66
2022/09/08 10:02:21;;;;;;;5.28;3.97;;;20.90;99.90;21.00;99923.00;;;;4917103;28;87300;-66
2022/09/08 10:05:24;;;;;;;5.13;2.97;;;20.80;99.90;20.90;99912.00;;;;4903720;28;87694;-66
2022/09/08 10:08:34;;;;;;;3.78;3.20;;;20.80;99.90;20.80;99919.00;;;;4913371;28;109329;-66
2022/09/08 10:12:01;;;;;;;3.22;2.92;;;20.60;99.90;20.60;99922.00;;;;4916421;28;89642;-67
2022/09/08 10:15:23;;;;;;;4.53;2.38;;;20.60;99.90;20.50;99919.00;;;;4857444;28;87846;-66
2022/09/08 10:18:46;;;;;;;3.65;2.33;;;20.30;99.90;20.50;99923.00;;;;4856977;28;87813;-66
2022/09/08 10:21:47;;;;;;;4.53;2.55;;;20.40;99.90;20.50;99919.00;;;;4916507;28;87900;-66
2022/09/08 10:25:06;;;;;;;2.38;2.17;;;20.30;99.90;20.40;99917.00;;;;4916067;28;88522;-66
2022/09/08 10:28:06;;;;;;;2.65;2.20;;;20.30;99.90;20.30;99921.00;;;;4884800;28;87717;-67
2022/09/08 10:31:12;;;;;;;4.18;2.53;;;20.20;99.90;20.10;99909.00;;;;4915299;28;87952;-67
2022/09/08 10:33:56;;;;;;;2.03;1.67;;;20.10;99.90;20.00;99905.00;;;;4917967;28;87737;-67
2022/09/08 10:36:42;;;;;;;2.85;1.92;;;19.90;99.90;19.90;99896.00;;;;4916068;28;87560;-68
2022/09/08 10:39:36;;;;;;;2.95;2.30;;;19.80;99.90;19.80;99905.00;;;;4915474;28;88543;-67
2022/09/08 10:42:44;;;;;;;5.75;2.45;;;19.70;99.90;19.70;99898.00;;;;4903889;28;88766;-68
2022/09/08 10:46:03;;;;;;;3.05;2.67;;;19.70;99.90;19.70;99895.00;;;;4916143;28;88276;-67
2022/09/08 10:49:00;;;;;;;3.70;3.00;;;19.60;99.90;19.60;99886.00;;;;4915966;28;87997;-67
2022/09/08 10:51:40;;;;;;;2.35;2.03;;;19.50;99.90;19.50;99896.00;;;;4915826;28;101103;-66
2022/09/08 10:54:41;;;;;;;4.55;2.28;;;19.40;99.90;19.30;99905.00;;;;4918069;28;87974;-66
2022/09/08 10:57:38;;;;;;;3.33;2.60;;;19.30;99.90;19.20;99902.00;;;;4917535;28;87779;-67
2022/09/08 11:00:19;;;;;;;2.33;2.10;;;19.20;99.90;19.20;99909.00;;;;4914723;28;98046;-66
2022/09/08 11:03:22;;;;;;;6.07;2.72;;;19.10;99.90;19.10;99915.00;;;;4903769;28;87358;-66
2022/09/08 11:05:58;;;;;;;3.63;2.15;;;19.10;99.90;19.10;99924.00;;;;4916396;28;87634;-67
2022/09/08 11:08:49;;;;;;;2.03;1.73;;;19.00;99.90;19.10;99922.00;;;;4915427;28;109806;-66
2022/09/08 11:12:03;;;;;;;1.75;1.48;;;19.00;99.90;19.00;99918.00;;;;4916592;28;88846;-66
2022/09/08 11:15:03;;;;;;;1.75;1.58;;;18.90;99.90;19.00;99916.00;;;;4909471;28;88128;-66
2022/09/08 11:17:42;;;;;;;2.17;1.73;;;18.90;99.90;19.00;99911.00;;;;4908522;28;95247;-67
2022/09/08 11:20:15;;;;;;;2.00;1.70;;;18.90;99.90;19.00;99904.00;;;;4915879;28;88022;-67
2022/09/08 11:23:24;;;;;;;2.88;1.67;;;18.90;99.90;18.90;99906.00;;;;4916814;28;88044;-68
2022/09/08 11:26:35;;;;;;;1.88;1.67;;;18.90;99.90;18.90;99903.00;;;;4916462;28;87752;-69
2022/09/08 11:29:18;;;;;;;1.10;1.00;;;18.80;99.90;18.90;99917.00;;;;4914126;28;96194;-68
2022/09/08 11:32:10;;;;;;;1.15;1.10;;;18.80;99.90;18.80;99899.00;;;;4914033;28;98573;-68
2022/09/08 11:34:44;;;;;;;2.22;1.55;;;18.70;99.90;18.80;99885.00;;;;4914500;28;87883;-68
2022/09/08 11:37:31;;;;;;;1.00;1.00;;;18.70;99.90;18.80;99891.00;;;;4914718;28;94976;-68
2022/09/08 11:40:31;;;;;;;7.93;1.65;;;18.70;99.90;18.70;99883.00;;;;4911891;28;88687;-67
2022/09/08 11:43:28;;;;;;;4.07;1.83;;;18.60;99.90;18.70;99885.00;;;;4914779;28;89965;-68
2022/09/08 11:46:23;;;;;;;3.28;1.30;;;18.60;99.90;18.60;99892.00;;;;4912966;28;89045;-67